createdAt,value
2022-10-11T00:02:19.365Z,39.74
2022-10-11T00:04:51.817Z,40.20
2022-10-11T00:07:22.872Z,40.43
2022-10-11T00:09:53.251Z,39.79
2022-10-11T00:12:22.812Z,40.25
2022-10-11T00:14:52.969Z,40.16
2022-10-11T00:17:24.197Z,40.83
2022-10-11T00:19:54.318Z,39.99
2022-10-11T00:22:24.458Z,39.43
2022-10-11T00:24:54.485Z,39.45
2022-10-11T00:27:24.626Z,39.34
2022-10-11T00:29:55.851Z,40.62
2022-10-11T00:32:26.111Z,39.40
2022-10-11T00:34:57.550Z,39.11
2022-10-11T00:37:27.712Z,39.27
2022-10-11T00:39:58.178Z,38.99
2022-10-11T00:42:28.652Z,38.72
2022-10-11T00:45:35.911Z,38.68
2022-10-11T00:48:20.864Z,38.51
2022-10-11T00:50:52.482Z,38.06
2022-10-11T00:53:25.266Z,38.01
2022-10-11T00:56:02.752Z,38.46
2022-10-11T00:58:35.983Z,37.70
2022-10-11T01:01:06.595Z,37.76
2022-10-11T01:03:39.776Z,37.85
2022-10-11T01:06:11.420Z,37.44
2022-10-11T01:08:42.499Z,37.55
2022-10-11T01:11:21.323Z,37.58
2022-10-11T01:14:20.051Z,37.70
2022-10-11T01:17:08.990Z,36.60
2022-10-11T01:20:06.559Z,37.33
2022-10-11T01:22:57.410Z,37.86
2022-10-11T01:25:50.403Z,37.80
2022-10-11T01:28:44.348Z,37.61
2022-10-11T01:31:45.195Z,37.22
2022-10-11T01:34:42.967Z,36.71
2022-10-11T01:37:25.668Z,37.07
2022-10-11T01:40:40.368Z,37.37
2022-10-11T01:43:12.625Z,37.33
2022-10-11T01:45:43.725Z,36.98
2022-10-11T01:48:16.120Z,36.76
2022-10-11T01:50:48.452Z,37.14
2022-10-11T01:53:45.860Z,36.45
2022-10-11T01:56:34.424Z,36.85
2022-10-11T01:59:04.779Z,36.48
2022-10-11T02:02:09.913Z,36.50
2022-10-11T02:04:47.200Z,35.77
2022-10-11T02:07:48.565Z,36.06
2022-10-11T02:10:36.566Z,35.19
2022-10-11T02:13:33.438Z,35.08
2022-10-11T02:16:08.667Z,35.93
2022-10-11T02:18:45.280Z,35.97
2022-10-11T02:21:20.251Z,35.17
2022-10-11T02:24:10.065Z,35.45
2022-10-11T02:26:44.948Z,35.66
2022-10-11T02:29:18.648Z,35.80
2022-10-11T02:31:50.226Z,35.07
2022-10-11T02:34:39.523Z,34.78
2022-10-11T02:37:37.710Z,35.23
2022-10-11T02:40:22.257Z,34.08
2022-10-11T02:43:02.520Z,34.70
2022-10-11T02:46:00.797Z,35.43
2022-10-11T02:48:32.440Z,35.71
2022-10-11T02:51:02.423Z,34.58
2022-10-11T02:53:32.834Z,34.85
2022-10-11T02:56:04.107Z,33.94
2022-10-11T02:58:34.395Z,34.21
2022-10-11T03:01:04.539Z,33.28
2022-10-11T03:03:34.597Z,34.19
2022-10-11T03:06:06.553Z,33.08
2022-10-11T03:08:37.822Z,29.92
2022-10-11T03:11:08.409Z,34.04
2022-10-11T03:13:38.512Z,33.94
2022-10-11T03:16:09.444Z,33.92
2022-10-11T03:18:39.847Z,34.52
2022-10-11T03:21:09.902Z,33.71
2022-10-11T03:23:41.189Z,31.31
2022-10-11T03:26:11.688Z,32.72
2022-10-11T03:28:41.684Z,31.69
2022-10-11T03:31:11.651Z,31.49
2022-10-11T03:33:41.568Z,31.58
2022-10-11T03:36:11.508Z,32.63
2022-10-11T03:38:41.607Z,33.44
2022-10-11T03:41:11.618Z,33.48
2022-10-11T03:43:41.649Z,34.01
2022-10-11T03:46:11.571Z,33.42
2022-10-11T03:48:41.923Z,33.88
2022-10-11T03:51:15.245Z,33.38
2022-10-11T03:53:45.518Z,33.90
2022-10-11T03:56:16.643Z,33.55
2022-10-11T03:58:46.952Z,33.55
2022-10-11T04:01:17.466Z,33.94
2022-10-11T04:03:47.530Z,33.32
2022-10-11T04:06:18.020Z,33.31
2022-10-11T04:08:49.324Z,33.27
2022-10-11T04:11:20.099Z,32.61
2022-10-11T04:13:50.120Z,32.69
2022-10-11T04:16:20.083Z,33.17
2022-10-11T04:18:50.045Z,30.76
2022-10-11T04:21:20.941Z,31.54
2022-10-11T04:23:51.099Z,32.20
2022-10-11T04:26:21.062Z,32.69
2022-10-11T04:28:51.120Z,32.11
2022-10-11T04:31:21.179Z,32.97
2022-10-11T04:33:52.261Z,32.61
2022-10-11T04:36:22.344Z,31.96
2022-10-11T04:38:52.384Z,32.95
2022-10-11T04:41:22.529Z,32.80
2022-10-11T04:43:52.520Z,30.92
2022-10-11T04:46:23.054Z,32.27
2022-10-11T04:48:53.670Z,32.50
2022-10-11T04:51:24.348Z,32.38
2022-10-11T04:53:55.225Z,31.26
2022-10-11T04:56:25.420Z,31.91
2022-10-11T04:58:56.891Z,32.46
2022-10-11T05:01:26.829Z,32.55
2022-10-11T05:03:57.383Z,32.59
2022-10-11T05:06:28.175Z,32.11
2022-10-11T05:08:58.404Z,32.78
2022-10-11T05:11:29.583Z,32.17
2022-10-11T05:13:59.911Z,31.94
2022-10-11T05:16:29.925Z,31.37
2022-10-11T05:19:00.974Z,32.21
2022-10-11T05:21:32.923Z,32.49
2022-10-11T05:24:03.236Z,31.86
2022-10-11T05:26:33.233Z,31.30
2022-10-11T05:29:03.271Z,32.16
2022-10-11T05:31:33.914Z,32.02
2022-10-11T05:34:04.747Z,31.69
2022-10-11T05:36:35.267Z,31.81
2022-10-11T05:39:06.087Z,31.46
2022-10-11T05:41:36.654Z,31.24
2022-10-11T05:44:06.941Z,30.99
2022-10-11T05:46:36.841Z,31.25
2022-10-11T05:49:07.873Z,31.52
2022-10-11T05:51:38.108Z,28.89
2022-10-11T05:54:08.670Z,30.78
2022-10-11T05:56:38.774Z,31.45
2022-10-11T05:59:09.313Z,31.38
2022-10-11T06:01:39.590Z,31.75
2022-10-11T06:04:10.269Z,29.44
2022-10-11T06:06:42.519Z,31.04
2022-10-11T06:09:13.374Z,31.04
2022-10-11T06:11:44.179Z,30.93
2022-10-11T06:14:14.427Z,29.61
2022-10-11T06:16:44.489Z,30.63
2022-10-11T06:19:14.693Z,29.47
2022-10-11T06:21:44.710Z,30.21
2022-10-11T06:24:14.484Z,30.42
2022-10-11T06:26:44.473Z,30.67
2022-10-11T06:29:15.776Z,31.25
2022-10-11T06:31:46.476Z,31.79
2022-10-11T06:34:17.736Z,31.08
2022-10-11T06:36:48.137Z,30.74
2022-10-11T06:39:18.241Z,31.55
2022-10-11T06:41:48.473Z,32.20
2022-10-11T06:44:18.633Z,32.10
2022-10-11T06:46:48.558Z,31.49
2022-10-11T06:49:23.090Z,31.04
2022-10-11T06:51:54.048Z,32.13
2022-10-11T06:54:24.669Z,31.16
2022-10-11T06:56:54.857Z,29.83
2022-10-11T06:59:24.800Z,30.96
2022-10-11T07:01:54.827Z,30.29
2022-10-11T07:04:24.837Z,31.25
2022-10-11T07:06:54.767Z,30.13
2022-10-11T07:09:24.829Z,30.35
2022-10-11T07:11:55.682Z,31.90
2022-10-11T07:14:25.895Z,28.35
2022-10-11T07:16:55.904Z,31.76
2022-10-11T07:19:26.157Z,30.79
2022-10-11T07:21:56.160Z,31.16
2022-10-11T07:24:26.673Z,29.73
2022-10-11T07:26:56.736Z,31.10
2022-10-11T07:29:27.154Z,31.11
2022-10-11T07:31:57.490Z,30.84
2022-10-11T07:34:27.531Z,31.01
2022-10-11T07:36:57.616Z,30.54
2022-10-11T07:39:27.699Z,28.42
2022-10-11T07:41:57.819Z,30.57
2022-10-11T07:44:28.999Z,30.09
2022-10-11T07:47:00.329Z,30.26
2022-10-11T07:49:30.781Z,29.40
2022-10-11T07:52:00.817Z,30.46
2022-10-11T07:54:31.022Z,30.99
2022-10-11T07:57:01.907Z,31.36
2022-10-11T07:59:32.027Z,30.12
2022-10-11T08:02:02.784Z,30.35
2022-10-11T08:04:32.923Z,31.49
2022-10-11T08:07:03.403Z,30.10
2022-10-11T08:09:34.056Z,31.35
2022-10-11T08:12:04.483Z,30.93
2022-10-11T08:14:34.541Z,30.80
2022-10-11T08:17:04.482Z,31.18
2022-10-11T08:19:34.452Z,28.91
2022-10-11T08:22:04.569Z,30.25
2022-10-11T08:24:38.173Z,30.73
2022-10-11T08:27:10.113Z,30.71
2022-10-11T08:29:40.349Z,30.62
2022-10-11T08:32:13.322Z,31.34
2022-10-11T08:34:43.736Z,31.06
2022-10-11T08:37:13.811Z,31.73
2022-10-11T08:39:43.958Z,31.58
2022-10-11T08:42:25.627Z,31.37
2022-10-11T08:45:11.533Z,31.17
2022-10-11T08:47:45.892Z,31.16
2022-10-11T08:50:23.201Z,31.48
2022-10-11T08:53:04.352Z,31.86
2022-10-11T08:55:46.467Z,31.78
2022-10-11T08:58:23.550Z,32.48
2022-10-11T09:00:56.481Z,32.10
2022-10-11T09:03:35.421Z,32.08
2022-10-11T09:06:20.925Z,32.76
2022-10-11T09:08:59.436Z,32.76
2022-10-11T09:11:46.461Z,32.98
2022-10-11T09:14:16.486Z,32.77
2022-10-11T09:17:29.441Z,32.91
2022-10-11T09:20:13.505Z,33.04
2022-10-11T09:22:52.085Z,32.99
2022-10-11T09:25:38.835Z,33.50
2022-10-11T09:28:31.739Z,33.62
2022-10-11T09:31:02.436Z,33.68
2022-10-11T09:33:36.696Z,34.30
2022-10-11T09:36:24.488Z,34.20
2022-10-11T09:39:17.453Z,34.37
2022-10-11T09:41:56.417Z,33.66
2022-10-11T09:44:30.557Z,33.52
2022-10-11T09:47:01.148Z,33.61
2022-10-11T09:49:40.716Z,33.79
2022-10-11T09:52:22.847Z,34.02
2022-10-11T09:54:59.669Z,33.60
2022-10-11T09:57:31.603Z,34.11
2022-10-11T10:00:04.925Z,34.10
2022-10-11T10:03:05.759Z,33.91
2022-10-11T10:05:40.169Z,34.23
2022-10-11T10:08:13.153Z,34.23
2022-10-11T10:10:49.901Z,33.63
2022-10-11T10:13:23.334Z,34.25
2022-10-11T10:15:57.382Z,33.95
2022-10-11T10:18:32.287Z,33.40
2022-10-11T10:21:03.853Z,33.47
2022-10-11T10:23:39.272Z,33.61
2022-10-11T10:26:25.472Z,33.79
2022-10-11T10:29:06.995Z,34.14
2022-10-11T10:32:14.909Z,33.87
2022-10-11T10:35:31.241Z,34.17
2022-10-11T10:38:26.734Z,34.25
2022-10-11T10:41:06.186Z,34.29
2022-10-11T10:43:38.878Z,33.63
2022-10-11T10:46:47.110Z,33.51
2022-10-11T10:49:53.779Z,33.79
2022-10-11T10:52:38.764Z,34.64
2022-10-11T10:55:42.287Z,34.08
2022-10-11T10:58:46.040Z,33.81
2022-10-11T11:01:28.444Z,34.35
2022-10-11T11:04:22.391Z,35.03
2022-10-11T11:06:56.874Z,35.18
2022-10-11T11:09:45.187Z,35.50
2022-10-11T11:12:30.118Z,36.07
2022-10-11T11:15:11.967Z,36.58
2022-10-11T11:17:56.904Z,35.73
2022-10-11T11:21:14.541Z,35.88
2022-10-11T11:24:26.474Z,36.20
2022-10-11T11:27:44.471Z,35.69
2022-10-11T11:30:33.979Z,36.78
2022-10-11T11:33:29.811Z,36.61
2022-10-11T11:36:06.191Z,37.41
2022-10-11T11:38:55.279Z,36.85
2022-10-11T11:41:40.029Z,37.64
2022-10-11T11:44:35.599Z,37.29
2022-10-11T11:47:18.997Z,38.30
2022-10-11T11:49:58.044Z,37.79
2022-10-11T11:52:48.374Z,37.45
2022-10-11T11:55:23.060Z,37.87
2022-10-11T11:58:24.848Z,36.79
2022-10-11T12:01:31.173Z,36.08
2022-10-11T12:04:09.187Z,36.70
2022-10-11T12:06:57.942Z,35.86
2022-10-11T12:09:32.638Z,35.94
2022-10-11T12:12:12.263Z,36.17
2022-10-11T12:14:43.917Z,36.12
2022-10-11T12:17:21.792Z,35.61
2022-10-11T12:20:02.048Z,35.82
2022-10-11T12:22:32.639Z,35.51
2022-10-11T12:25:32.697Z,35.78
2022-10-11T12:28:22.334Z,35.69
2022-10-11T12:30:57.119Z,35.16
2022-10-11T12:33:27.717Z,35.89
2022-10-11T12:35:58.002Z,35.29
2022-10-11T12:38:35.810Z,35.51
2022-10-11T12:41:11.784Z,35.83
2022-10-11T12:43:51.544Z,35.31
2022-10-11T12:46:30.826Z,35.80
2022-10-11T12:49:29.057Z,36.28
2022-10-11T12:52:20.315Z,36.36
2022-10-11T12:55:34.590Z,36.60
2022-10-11T12:58:21.677Z,37.08
2022-10-11T13:00:56.489Z,38.09
2022-10-11T13:03:51.984Z,38.61
2022-10-11T13:06:33.372Z,38.54
2022-10-11T13:09:19.174Z,39.02
2022-10-11T13:12:05.454Z,39.12
2022-10-11T13:14:48.569Z,38.91
2022-10-11T13:17:38.509Z,38.99
2022-10-11T13:20:12.735Z,38.87
2022-10-11T13:22:42.786Z,39.38
2022-10-11T13:25:19.055Z,39.15
2022-10-11T13:27:51.896Z,39.55
2022-10-11T13:30:35.592Z,39.43
2022-10-11T13:33:17.977Z,40.41
2022-10-11T13:35:47.682Z,40.06
2022-10-11T13:38:38.870Z,39.95
2022-10-11T13:41:12.362Z,39.49
2022-10-11T13:43:43.040Z,40.34
2022-10-11T13:46:25.481Z,39.62
2022-10-11T13:49:06.712Z,39.47
2022-10-11T13:51:39.403Z,40.10
2022-10-11T13:54:13.722Z,40.33
2022-10-11T13:56:52.276Z,40.11
2022-10-11T13:59:32.390Z,40.14
2022-10-11T14:02:05.613Z,42.18
2022-10-11T14:04:43.199Z,40.53
2022-10-11T14:07:35.447Z,40.22
2022-10-11T14:10:07.636Z,42.18
2022-10-11T14:12:42.122Z,42.72
2022-10-11T14:15:33.291Z,41.01
2022-10-11T14:18:24.916Z,42.31
2022-10-11T14:20:55.130Z,41.33
2022-10-11T14:23:25.487Z,42.24
2022-10-11T14:25:55.574Z,41.85
2022-10-11T14:28:26.361Z,41.94
2022-10-11T14:30:57.699Z,41.32
2022-10-11T14:33:28.434Z,42.30
2022-10-11T14:35:59.022Z,41.98
2022-10-11T14:38:29.901Z,40.73
2022-10-11T14:41:00.307Z,41.55
2022-10-11T14:43:30.505Z,42.19
2022-10-11T14:46:00.986Z,41.74
2022-10-11T14:48:53.734Z,41.89
2022-10-11T14:51:26.474Z,41.40
2022-10-11T14:53:56.656Z,42.17
2022-10-11T14:56:27.117Z,42.82
2022-10-11T14:58:57.428Z,42.41
2022-10-11T15:01:28.993Z,43.13
2022-10-11T15:03:59.575Z,43.65
2022-10-11T15:06:34.892Z,42.64
2022-10-11T15:09:06.187Z,41.81
2022-10-11T15:11:35.854Z,42.79
2022-10-11T15:14:07.177Z,43.85
2022-10-11T15:16:42.765Z,43.34
2022-10-11T15:19:15.689Z,42.70
2022-10-11T15:21:46.542Z,43.23
2022-10-11T15:24:17.347Z,45.40
2022-10-11T15:26:48.912Z,43.43
2022-10-11T15:29:19.581Z,43.87
2022-10-11T15:31:50.965Z,44.53
2022-10-11T15:34:21.025Z,43.15
2022-10-11T15:36:51.391Z,44.10
2022-10-11T15:39:36.121Z,43.26
2022-10-11T15:42:06.617Z,43.92
2022-10-11T15:44:36.622Z,44.56
2022-10-11T15:47:06.686Z,46.78
2022-10-11T15:49:36.793Z,45.44
2022-10-11T15:52:07.049Z,44.50
2022-10-11T15:54:37.554Z,44.51
2022-10-11T15:57:07.972Z,44.80
2022-10-11T15:59:38.046Z,46.87
2022-10-11T16:02:08.317Z,45.21
2022-10-11T16:04:38.648Z,44.03
2022-10-11T16:07:09.680Z,44.59
2022-10-11T16:09:39.247Z,45.30
2022-10-11T16:12:09.752Z,45.00
2022-10-11T16:14:41.700Z,45.08
2022-10-11T16:17:15.104Z,45.43
2022-10-11T16:19:45.157Z,44.97
2022-10-11T16:22:15.215Z,45.05
2022-10-11T16:24:45.487Z,45.37
2022-10-11T16:27:18.698Z,45.35
2022-10-11T16:29:50.376Z,44.83
2022-10-11T16:32:20.574Z,44.84
2022-10-11T16:34:51.518Z,45.98
2022-10-11T16:37:21.757Z,45.39
2022-10-11T16:39:53.065Z,45.32
2022-10-11T16:42:23.222Z,45.71
2022-10-11T16:44:53.416Z,44.46
2022-10-11T16:47:23.229Z,45.75
2022-10-11T16:49:53.904Z,44.23
2022-10-11T16:52:24.010Z,44.26
2022-10-11T16:54:55.095Z,44.67
2022-10-11T16:57:25.736Z,45.04
2022-10-11T16:59:56.196Z,45.09
2022-10-11T17:02:32.301Z,44.83
2022-10-11T17:05:04.102Z,44.35
2022-10-11T17:07:34.058Z,44.24
2022-10-11T17:10:04.037Z,44.54
2022-10-11T17:12:36.705Z,45.90
2022-10-11T17:15:08.861Z,45.69
2022-10-11T17:17:39.060Z,46.14
2022-10-11T17:20:09.791Z,45.27
2022-10-11T17:22:39.905Z,46.61
2022-10-11T17:25:10.800Z,44.94
2022-10-11T17:27:40.971Z,47.34
2022-10-11T17:30:12.811Z,45.95
2022-10-11T17:32:43.179Z,45.86
2022-10-11T17:35:13.709Z,45.77
2022-10-11T17:37:43.698Z,45.24
2022-10-11T17:40:13.730Z,46.31
2022-10-11T17:42:43.725Z,45.11
2022-10-11T17:45:13.754Z,45.68
2022-10-11T17:47:43.700Z,45.34
2022-10-11T17:50:13.677Z,44.91
2022-10-11T17:52:43.731Z,46.40
2022-10-11T17:55:13.903Z,46.00
2022-10-11T17:57:44.505Z,47.86
2022-10-11T18:00:15.143Z,45.98
2022-10-11T18:02:45.694Z,45.43
2022-10-11T18:05:15.889Z,46.58
2022-10-11T18:07:45.961Z,48.96
2022-10-11T18:10:16.301Z,45.88
2022-10-11T18:12:46.791Z,46.34
2022-10-11T18:15:16.957Z,46.20
2022-10-11T18:17:49.200Z,46.58
2022-10-11T18:20:19.786Z,46.57
2022-10-11T18:22:51.036Z,46.89
2022-10-11T18:25:21.576Z,48.85
2022-10-11T18:27:53.291Z,46.06
2022-10-11T18:30:23.999Z,46.53
2022-10-11T18:32:54.186Z,46.33
2022-10-11T18:35:24.377Z,45.28
2022-10-11T18:37:58.679Z,46.66
2022-10-11T18:40:31.964Z,45.02
2022-10-11T18:43:02.328Z,45.65
2022-10-11T18:45:32.853Z,46.59
2022-10-11T18:48:03.879Z,46.40
2022-10-11T18:50:36.673Z,46.64
2022-10-11T18:53:08.111Z,46.67
2022-10-11T18:55:38.848Z,45.91
2022-10-11T18:58:08.828Z,48.53
2022-10-11T19:00:41.036Z,47.36
2022-10-11T19:03:12.649Z,45.71
2022-10-11T19:05:42.877Z,47.14
2022-10-11T19:08:12.856Z,47.20
2022-10-11T19:10:42.807Z,46.67
2022-10-11T19:13:12.813Z,47.53
2022-10-11T19:15:42.937Z,47.66
2022-10-11T19:18:17.034Z,48.23
2022-10-11T19:20:49.615Z,46.84
2022-10-11T19:23:20.283Z,47.09
2022-10-11T19:25:50.269Z,46.79
2022-10-11T19:28:20.199Z,47.20
2022-10-11T19:30:51.077Z,48.18
2022-10-11T19:33:21.744Z,48.14
2022-10-11T19:35:58.592Z,48.65
2022-10-11T19:38:29.113Z,48.33
2022-10-11T19:40:59.226Z,49.46
2022-10-11T19:43:29.297Z,47.83
2022-10-11T19:46:04.392Z,48.52
2022-10-11T19:48:37.790Z,48.25
2022-10-11T19:51:13.827Z,48.20
2022-10-11T19:53:44.655Z,48.18
2022-10-11T19:56:17.797Z,48.31
2022-10-11T19:58:48.172Z,47.69
2022-10-11T20:01:21.469Z,46.81
2022-10-11T20:03:55.027Z,46.16
2022-10-11T20:06:27.126Z,46.54
2022-10-11T20:09:23.979Z,46.41
2022-10-11T20:11:47.442Z,47.26
2022-10-11T20:14:17.433Z,47.16
2022-10-11T20:16:47.476Z,46.92
2022-10-11T20:19:17.440Z,48.37
2022-10-11T20:21:47.456Z,48.03
2022-10-11T20:24:17.492Z,48.18
2022-10-11T20:26:47.397Z,49.11
2022-10-11T20:29:16.678Z,50.70
2022-10-11T20:31:46.814Z,46.50
2022-10-11T20:34:16.829Z,46.56
2022-10-11T20:36:49.148Z,49.01
2022-10-11T20:39:20.303Z,50.02
2022-10-11T20:41:50.516Z,50.39
2022-10-11T20:44:20.561Z,50.56
2022-10-11T20:46:50.697Z,50.60
2022-10-11T20:49:21.146Z,48.66
2022-10-11T20:51:52.255Z,47.66
2022-10-11T20:54:22.637Z,48.41
2022-10-11T20:56:52.705Z,50.38
2022-10-11T20:59:22.785Z,51.12
2022-10-11T21:01:52.942Z,51.29
2022-10-11T21:04:23.644Z,51.29
2022-10-11T21:06:53.787Z,51.89
2022-10-11T21:09:23.911Z,51.00
2022-10-11T21:11:54.426Z,51.06
2022-10-11T21:14:24.520Z,50.69
2022-10-11T21:16:54.636Z,51.61
2022-10-11T21:19:24.005Z,48.70
2022-10-11T21:21:54.078Z,51.10
2022-10-11T21:24:24.309Z,51.34
2022-10-11T21:26:58.203Z,51.11
2022-10-11T21:29:30.933Z,50.55
2022-10-11T21:32:01.090Z,51.03
2022-10-11T21:34:31.116Z,51.38
2022-10-11T21:37:01.815Z,51.57
2022-10-11T21:39:31.880Z,50.98
2022-10-11T21:42:01.824Z,51.49
2022-10-11T21:44:37.547Z,50.65
2022-10-11T21:47:07.929Z,50.38
2022-10-11T21:49:39.084Z,51.92
2022-10-11T21:52:09.385Z,50.81
2022-10-11T21:54:39.800Z,51.69
2022-10-11T21:57:09.839Z,50.86
2022-10-11T21:59:39.754Z,51.90
2022-10-11T22:02:09.808Z,51.72
2022-10-11T22:04:39.818Z,50.86
2022-10-11T22:07:09.813Z,51.93
2022-10-11T22:09:39.879Z,51.57
2022-10-11T22:12:10.108Z,50.90
2022-10-11T22:14:40.248Z,51.36
2022-10-11T22:17:10.203Z,51.25
2022-10-11T22:19:40.149Z,52.33
2022-10-11T22:22:10.178Z,52.15
2022-10-11T22:24:40.289Z,52.53
2022-10-11T22:27:10.536Z,52.56
2022-10-11T22:29:40.479Z,52.27
2022-10-11T22:32:10.489Z,52.71
2022-10-11T22:34:40.458Z,51.85
2022-10-11T22:37:11.634Z,52.49
2022-10-11T22:39:41.621Z,52.54
2022-10-11T22:42:11.608Z,52.67
2022-10-11T22:44:41.508Z,53.30
2022-10-11T22:47:11.513Z,52.01
2022-10-11T22:49:41.562Z,52.15
2022-10-11T22:52:11.798Z,51.53
2022-10-11T22:54:41.865Z,52.50
2022-10-11T22:57:12.068Z,52.61
2022-10-11T22:59:41.445Z,52.51
2022-10-11T23:02:11.463Z,52.00
2022-10-11T23:04:41.477Z,50.84
2022-10-11T23:07:11.570Z,51.69
2022-10-11T23:09:41.562Z,51.59
2022-10-11T23:12:11.431Z,50.90
2022-10-11T23:14:41.117Z,49.73
2022-10-11T23:17:11.215Z,52.25
2022-10-11T23:19:41.481Z,51.29
2022-10-11T23:22:11.463Z,51.29
2022-10-11T23:24:41.355Z,52.15
2022-10-11T23:27:11.396Z,51.38
2022-10-11T23:29:42.301Z,51.50
2022-10-11T23:32:13.700Z,50.45
2022-10-11T23:34:44.030Z,50.46
2022-10-11T23:37:13.973Z,50.25
2022-10-11T23:39:43.970Z,50.42
2022-10-11T23:42:13.901Z,50.30
2022-10-11T23:44:43.214Z,46.67
2022-10-11T23:47:13.251Z,50.09
2022-10-11T23:49:43.190Z,50.59
2022-10-11T23:52:14.245Z,49.76
2022-10-11T23:54:44.457Z,50.64
2022-10-11T23:57:14.569Z,46.97
2022-10-11T23:59:44.735Z,46.57
